createdAt,value
2018-11-29T00:00:36.817Z,27.03
2018-11-29T00:05:40.700Z,25.17
2018-11-29T00:10:43.897Z,26.47
2018-11-29T00:15:47.097Z,27.20
2018-11-29T00:20:50.253Z,28.33
2018-11-29T00:25:53.447Z,25.83
2018-11-29T00:30:56.721Z,28.97
2018-11-29T00:35:59.865Z,27.10
2018-11-29T00:41:03.060Z,27.93
2018-11-29T00:46:06.291Z,27.20
2018-11-29T00:51:09.456Z,29.53
2018-11-29T00:56:12.645Z,27.20
2018-11-29T01:01:15.792Z,24.00
2018-11-29T01:06:18.954Z,28.17
2018-11-29T01:11:22.180Z,27.63
2018-11-29T01:16:25.352Z,24.70
2018-11-29T01:21:28.629Z,24.33
2018-11-29T01:26:31.801Z,25.63
2018-11-29T01:31:35.500Z,25.87
2018-11-29T01:36:38.733Z,24.40
2018-11-29T01:41:41.952Z,26.03
2018-11-29T01:46:45.149Z,22.97
2018-11-29T01:51:48.288Z,29.10
2018-11-29T01:56:51.449Z,24.17
2018-11-29T02:01:54.615Z,23.70
2018-11-29T02:06:57.752Z,24.40
2018-11-29T02:12:00.992Z,26.53
2018-11-29T02:17:05.281Z,27.13
2018-11-29T02:22:08.516Z,24.50
2018-11-29T02:27:11.777Z,26.27
2018-11-29T02:32:14.921Z,26.47
2018-11-29T02:37:18.165Z,23.93
2018-11-29T02:42:21.343Z,23.60
2018-11-29T02:47:24.554Z,21.50
2018-11-29T02:52:27.712Z,18.33
2018-11-29T02:57:31.070Z,21.03
2018-11-29T03:02:34.217Z,22.00
2018-11-29T03:07:38.057Z,19.30
2018-11-29T03:12:41.714Z,19.60
2018-11-29T03:17:45.206Z,19.33
2018-11-29T03:22:48.360Z,25.17
2018-11-29T03:27:52.434Z,23.47
2018-11-29T03:32:55.677Z,21.73
2018-11-29T03:37:58.906Z,21.77
2018-11-29T03:43:02.155Z,21.40
2018-11-29T03:48:05.308Z,20.73
2018-11-29T03:53:08.492Z,22.70
2018-11-29T03:58:11.638Z,24.87
2018-11-29T04:03:14.781Z,22.40
2018-11-29T04:08:17.924Z,24.23
2018-11-29T04:13:21.068Z,26.73
2018-11-29T04:18:24.345Z,24.17
2018-11-29T04:23:27.507Z,24.50
2018-11-29T04:28:30.759Z,20.57
2018-11-29T04:33:33.903Z,20.37
2018-11-29T04:38:37.228Z,21.67
2018-11-29T04:43:40.493Z,23.53
2018-11-29T04:48:43.653Z,23.93
2018-11-29T04:53:46.829Z,24.83
2018-11-29T04:58:49.973Z,22.20
2018-11-29T05:03:54.078Z,18.83
2018-11-29T05:08:57.327Z,22.80
2018-11-29T05:14:01.456Z,24.73
2018-11-29T05:19:04.666Z,19.10
2018-11-29T05:24:07.872Z,20.80
2018-11-29T05:29:10.992Z,22.73
2018-11-29T05:34:14.402Z,19.47
2018-11-29T05:39:18.209Z,18.70
2018-11-29T05:44:21.366Z,22.73
2018-11-29T05:49:24.769Z,22.67
2018-11-29T05:54:27.978Z,21.80
2018-11-29T05:59:31.162Z,18.90
2018-11-29T06:04:34.553Z,25.87
2018-11-29T06:09:37.781Z,24.50
2018-11-29T06:14:40.965Z,25.17
2018-11-29T06:19:44.119Z,23.97
2018-11-29T06:24:47.820Z,20.27
2018-11-29T06:29:51.104Z,21.33
2018-11-29T06:34:54.328Z,24.20
2018-11-29T06:39:57.621Z,21.90
2018-11-29T06:45:00.821Z,23.33
2018-11-29T06:50:08.858Z,25.53
2018-11-29T06:55:16.063Z,24.77
2018-11-29T07:00:26.367Z,28.53
2018-11-29T07:05:29.532Z,25.43
2018-11-29T07:10:33.165Z,23.60
2018-11-29T07:15:36.381Z,22.13
2018-11-29T07:20:39.582Z,21.17
2018-11-29T07:25:42.793Z,21.20
2018-11-29T07:30:45.956Z,23.47
2018-11-29T07:35:49.118Z,23.67
2018-11-29T07:40:52.604Z,19.43
2018-11-29T07:45:55.752Z,23.10
2018-11-29T07:50:58.956Z,21.87
2018-11-29T07:56:02.140Z,25.70
2018-11-29T08:01:06.101Z,22.63
2018-11-29T08:06:09.288Z,21.03
2018-11-29T08:11:12.554Z,26.07
2018-11-29T08:16:15.858Z,26.87
2018-11-29T08:21:19.580Z,27.27
2018-11-29T08:26:22.799Z,25.67
2018-11-29T08:31:25.982Z,21.13
2018-11-29T08:36:29.196Z,23.80
2018-11-29T08:41:33.322Z,24.40
2018-11-29T08:46:36.532Z,25.27
2018-11-29T08:51:40.357Z,22.53
2018-11-29T08:56:43.838Z,31.77
2018-11-29T09:01:47.582Z,29.47
2018-11-29T09:06:50.816Z,32.13
2018-11-29T09:11:53.981Z,22.80
2018-11-29T09:16:57.329Z,22.53
2018-11-29T09:22:01.254Z,22.50
2018-11-29T09:27:04.664Z,22.53
2018-11-29T09:32:07.984Z,22.57
2018-11-29T09:37:11.286Z,20.77
2018-11-29T09:42:14.721Z,21.00
2018-11-29T09:47:17.901Z,19.93
2018-11-29T09:52:21.091Z,19.03
2018-11-29T09:57:24.321Z,17.07
2018-11-29T10:02:27.486Z,17.50
2018-11-29T10:07:30.721Z,18.10
2018-11-29T10:12:33.977Z,18.33
2018-11-29T10:17:37.207Z,16.40
2018-11-29T10:22:41.861Z,18.13
2018-11-29T10:27:47.812Z,16.30
2018-11-29T10:32:51.049Z,16.20
2018-11-29T10:37:54.237Z,13.37
2018-11-29T10:42:57.964Z,14.93
2018-11-29T10:48:01.125Z,14.17
2018-11-29T10:53:04.700Z,12.53
2018-11-29T10:58:07.886Z,11.63
2018-11-29T11:03:17.257Z,12.57
2018-11-29T11:08:21.034Z,14.00
2018-11-29T11:13:24.313Z,12.77
2018-11-29T11:18:27.606Z,11.47
2018-11-29T11:23:30.777Z,12.83
2018-11-29T11:28:34.017Z,12.10
2018-11-29T11:33:37.754Z,11.50
2018-11-29T11:38:40.976Z,12.70
2018-11-29T11:43:44.243Z,12.53
2018-11-29T11:48:47.430Z,11.03
2018-11-29T11:53:50.769Z,12.73
2018-11-29T11:58:54.086Z,12.53
2018-11-29T12:03:57.400Z,11.10
2018-11-29T12:09:00.721Z,11.60
2018-11-29T12:14:04.072Z,13.40
2018-11-29T12:19:07.299Z,11.70
2018-11-29T12:24:10.512Z,13.07
2018-11-29T12:29:14.564Z,11.97
2018-11-29T12:34:17.759Z,11.63
2018-11-29T12:39:21.625Z,11.37
2018-11-29T12:44:24.832Z,13.00
2018-11-29T12:49:27.983Z,14.20
2018-11-29T12:54:31.154Z,9.80
2018-11-29T12:59:35.346Z,11.53
2018-11-29T13:04:39.546Z,10.23
2018-11-29T13:09:42.729Z,9.87
2018-11-29T13:14:45.965Z,12.83
2018-11-29T13:19:49.159Z,12.37
2018-11-29T13:24:52.309Z,12.87
2018-11-29T13:29:55.504Z,14.10
2018-11-29T13:34:58.677Z,12.80
2018-11-29T13:40:01.894Z,13.83
2018-11-29T13:45:08.864Z,12.87
2018-11-29T13:50:14.466Z,14.73
2018-11-29T13:55:17.695Z,13.87
2018-11-29T14:00:22.314Z,13.67
2018-11-29T14:05:25.580Z,12.93
2018-11-29T14:10:28.742Z,12.53
2018-11-29T14:15:31.989Z,18.53
2018-11-29T14:20:35.511Z,13.37
2018-11-29T14:25:38.488Z,17.27
2018-11-29T14:30:41.647Z,13.50
2018-11-29T14:35:44.837Z,13.33
2018-11-29T14:40:47.975Z,15.27
2018-11-29T14:45:51.171Z,16.33
2018-11-29T14:50:54.394Z,15.80
2018-11-29T14:55:57.624Z,17.57
2018-11-29T15:01:00.861Z,15.77
2018-11-29T15:06:04.089Z,18.07
2018-11-29T15:11:07.305Z,17.73
2018-11-29T15:16:10.552Z,14.70
2018-11-29T15:21:13.737Z,15.00
2018-11-29T15:26:16.953Z,16.10
2018-11-29T15:31:20.176Z,16.60
2018-11-29T15:36:23.410Z,14.77
2018-11-29T15:41:26.634Z,16.17
2018-11-29T15:46:29.833Z,13.10
2018-11-29T15:51:33.022Z,17.40
2018-11-29T15:56:36.272Z,14.60
2018-11-29T16:01:39.483Z,15.60
2018-11-29T16:06:42.710Z,16.33
2018-11-29T16:11:45.978Z,15.47
2018-11-29T16:16:49.181Z,16.43
2018-11-29T16:21:52.394Z,15.23
2018-11-29T16:26:55.541Z,16.57
2018-11-29T16:31:58.782Z,19.00
2018-11-29T16:37:02.051Z,14.57
2018-11-29T16:42:05.424Z,17.07
2018-11-29T16:47:08.629Z,19.33
2018-11-29T16:52:11.922Z,16.70
2018-11-29T16:57:15.126Z,16.73
2018-11-29T17:02:18.357Z,16.57
2018-11-29T17:07:21.649Z,19.00
2018-11-29T17:12:24.832Z,17.23
2018-11-29T17:17:28.078Z,21.00
2018-11-29T17:22:31.336Z,20.93
2018-11-29T17:27:34.626Z,21.37
2018-11-29T17:32:37.856Z,21.87
2018-11-29T17:37:41.133Z,21.90
2018-11-29T17:42:44.363Z,21.13
2018-11-29T17:47:48.365Z,25.00
2018-11-29T17:52:51.627Z,23.77
2018-11-29T17:57:54.914Z,26.90
2018-11-29T18:02:58.233Z,24.80
2018-11-29T18:08:01.505Z,27.63
2018-11-29T18:13:09.949Z,28.57
2018-11-29T18:18:13.406Z,20.73
2018-11-29T18:23:16.703Z,25.77
2018-11-29T18:28:19.995Z,27.43
2018-11-29T18:33:23.218Z,26.47
2018-11-29T18:38:26.467Z,23.90
2018-11-29T18:43:29.692Z,27.00
2018-11-29T18:48:32.929Z,26.60
2018-11-29T18:53:36.206Z,25.97
2018-11-29T18:58:41.301Z,23.37
2018-11-29T19:03:45.378Z,26.73
2018-11-29T19:08:48.721Z,25.10
2018-11-29T19:13:52.067Z,25.93
2018-11-29T19:18:55.465Z,21.87
2018-11-29T19:23:59.227Z,25.17
2018-11-29T19:29:02.648Z,22.03
2018-11-29T19:34:06.236Z,23.53
2018-11-29T19:39:09.733Z,24.60
2018-11-29T19:44:14.579Z,28.57
2018-11-29T19:49:17.865Z,24.33
2018-11-29T19:54:21.218Z,27.83
2018-11-29T19:59:24.578Z,21.17
2018-11-29T20:04:27.926Z,21.67
2018-11-29T20:09:31.261Z,26.63
2018-11-29T20:14:34.692Z,27.23
2018-11-29T20:19:38.073Z,22.47
2018-11-29T20:24:41.396Z,25.17
2018-11-29T20:29:44.678Z,24.70
2018-11-29T20:34:47.970Z,22.43
2018-11-29T20:39:51.379Z,24.90
2018-11-29T20:44:54.667Z,21.17
2018-11-29T20:49:57.951Z,24.60
2018-11-29T20:55:01.289Z,21.53
2018-11-29T21:00:09.918Z,20.97
2018-11-29T21:05:16.134Z,25.87
2018-11-29T21:10:22.233Z,24.13
2018-11-29T21:15:25.603Z,26.73
2018-11-29T21:20:28.912Z,23.33
2018-11-29T21:25:32.134Z,19.17
2018-11-29T21:30:35.494Z,19.13
2018-11-29T21:35:38.915Z,19.67
2018-11-29T21:41:00.969Z,23.37
2018-11-29T21:46:04.258Z,20.70
2018-11-29T21:51:08.340Z,22.57
2018-11-29T21:56:11.588Z,21.97
2018-11-29T22:01:14.881Z,17.73
2018-11-29T22:06:18.076Z,21.93
2018-11-29T22:11:21.312Z,17.20
2018-11-29T22:16:24.560Z,21.60
2018-11-29T22:21:27.793Z,23.23
2018-11-29T22:26:31.073Z,16.93
2018-11-29T22:31:34.301Z,20.07
2018-11-29T22:36:37.477Z,23.43
2018-11-29T22:41:47.456Z,22.40
2018-11-29T22:46:50.744Z,21.93
2018-11-29T22:51:53.981Z,20.03
2018-11-29T22:56:57.201Z,21.10
2018-11-29T23:02:00.440Z,21.90
2018-11-29T23:07:03.695Z,21.33
2018-11-29T23:12:06.853Z,22.30
2018-11-29T23:17:10.332Z,24.47
2018-11-29T23:22:13.645Z,22.87
2018-11-29T23:27:16.846Z,24.33
2018-11-29T23:32:20.141Z,27.43
2018-11-29T23:37:23.347Z,21.63
2018-11-29T23:42:26.515Z,26.83
2018-11-29T23:47:29.696Z,25.67
2018-11-29T23:52:32.854Z,29.03
2018-11-29T23:57:36.036Z,27.23
